Picabo, Idaho
Current Conditions -  °F | °C
As of 11:47 AM on Sunday 23 Nov 2014 (Local Time) from KSUN Reporting Station
Few Clouds Few Clouds  
Wind Chill: 34°   Ceiling: Unl
Heat Index: 37°   Visibility: 10mi
Dew Point: 18°   Wind: 5mph
Humidity: 45%   Direction: 320°NW
Pressure: 30.18"   Gusts: NA
Location:  43.31°N, 114.07°W
Report Text: KSUN 231847Z 32004KT 10SM FEW140 03/M08 A3018
Loading
Personal Weather Stations






























Interactive Weather Map New forecast layout! Learn more

10-Day Weather Forecast

Advertisements
Track Severe Weather on mobile